Time;durP1;ratioP1;P1;durP2;ratioP2;P2;SDS_P1;SDS_P2;PMS_P1;PMS_P2;Temp;Humidity;BMP_temperature;BMP_pressure;BME280_temperature;BME280_humidity;BME280_pressure;Samples;Min_cycle;Max_cycle;Signal;HPM_P1;HPM_P2
2023/07/29 00:02:22;;;;;;;1.17;1.00;;;;;;;;;;6199985;28;20066;-67
2023/07/29 00:05:22;;;;;;;1.33;1.17;;;;;;;;;;5847984;28;10000512;-67
2023/07/29 00:08:22;;;;;;;1.90;1.20;;;;;;;;;;6193284;28;20446;-67
2023/07/29 00:11:23;;;;;;;1.38;1.27;;;;;;;;;;6183475;28;20718;-68
2023/07/29 00:14:23;;;;;;;1.53;1.10;;;;;;;;;;6195547;28;20045;-66
2023/07/29 00:17:23;;;;;;;1.67;1.05;;;;;;;;;;6193599;28;20086;-68
2023/07/29 00:20:23;;;;;;;1.33;1.23;;;;;;;;;;6200227;28;20026;-68
2023/07/29 00:23:24;;;;;;;1.95;1.42;;;;;;;;;;6198906;28;20270;-67
2023/07/29 00:26:25;;;;;;;1.70;1.50;;;;;;;;;;6199617;28;20582;-67
2023/07/29 00:29:26;;;;;;;1.10;1.00;;;;;;;;;;6198278;28;20022;-67
2023/07/29 00:32:29;;;;;;;1.27;1.17;;;;;;;;;;6198041;28;20058;-67
2023/07/29 00:35:29;;;;;;;1.30;1.10;;;;;;;;;;6197510;28;20273;-67
2023/07/29 00:38:29;;;;;;;2.03;1.13;;;;;;;;;;6193728;28;20502;-67
2023/07/29 00:41:30;;;;;;;1.50;1.40;;;;;;;;;;6196759;28;20301;-68
2023/07/29 00:44:31;;;;;;;;;;;;;;;;;;6186178;28;20258;-68
2023/07/29 00:47:31;;;;;;;1.40;1.15;;;;;;;;;;6186738;28;19960;-68
2023/07/29 00:50:32;;;;;;;1.30;1.20;;;;;;;;;;6185702;28;20475;-68
2023/07/29 00:53:32;;;;;;;;;;;;;;;;;;6183587;28;20277;-67
2023/07/29 00:56:33;;;;;;;1.10;1.00;;;;;;;;;;6184439;28;19913;-67
2023/07/29 00:59:36;;;;;;;1.30;1.20;;;;;;;;;;6180023;28;20050;-68
2023/07/29 01:02:37;;;;;;;1.67;1.30;;;;;;;;;;6183306;28;20033;-67
2023/07/29 01:05:37;;;;;;;;;;;;;;;;;;6178382;28;20053;-67
2023/07/29 01:08:37;;;;;;;1.55;1.35;;;;;;;;;;6193238;28;21179;-67
2023/07/29 01:11:38;;;;;;;;;;;;;;;;;;6184678;28;20033;-67
2023/07/29 01:14:41;;;;;;;1.13;0.98;;;;;;;;;;6198825;28;19906;-67
2023/07/29 01:17:54;;;;;;;1.25;1.15;;;;;;;;;;6196857;28;20102;-67
2023/07/29 01:20:55;;;;;;;1.25;1.15;;;;;;;;;;6201160;28;20121;-68
2023/07/29 01:23:59;;;;;;;1.58;1.40;;;;;;;;;;6200708;28;20026;-67
2023/07/29 01:27:01;;;;;;;1.48;1.27;;;;;;;;;;6188808;28;20256;-67
2023/07/29 01:30:02;;;;;;;1.20;1.10;;;;;;;;;;6176129;28;20265;-68
2023/07/29 01:33:21;;;;;;;1.88;1.23;;;;;;;;;;6176078;28;20040;-68
2023/07/29 01:36:23;;;;;;;1.33;1.23;;;;;;;;;;6180784;28;20073;-68
2023/07/29 01:39:23;;;;;;;1.20;1.02;;;;;;;;;;6182754;28;20030;-68
2023/07/29 01:42:23;;;;;;;;;;;;;;;;;;6183128;28;20045;-68
2023/07/29 01:45:25;;;;;;;1.52;1.08;;;;;;;;;;6181994;28;20013;-68
2023/07/29 01:48:27;;;;;;;1.40;1.30;;;;;;;;;;6181029;28;20030;-68
2023/07/29 01:51:27;;;;;;;1.42;1.15;;;;;;;;;;6181972;28;20163;-67
2023/07/29 01:54:27;;;;;;;;;;;;;;;;;;6181595;28;20027;-68
2023/07/29 01:57:28;;;;;;;1.58;1.27;;;;;;;;;;6189892;28;19928;-67
2023/07/29 02:00:28;;;;;;;;;;;;;;;;;;6186964;28;20369;-68
2023/07/29 02:03:28;;;;;;;1.83;1.00;;;;;;;;;;6187048;28;19913;-67
2023/07/29 02:06:28;;;;;;;;;;;;;;;;;;6192809;28;20223;-67
2023/07/29 02:09:30;;;;;;;2.33;1.20;;;;;;;;;;6191994;28;19917;-67
2023/07/29 02:12:30;;;;;;;1.73;1.50;;;;;;;;;;6188128;28;20022;-67
2023/07/29 02:15:31;;;;;;;;;;;;;;;;;;6195343;28;20022;-68
2023/07/29 02:18:31;;;;;;;1.50;1.27;;;;;;;;;;6184707;28;20005;-68
2023/07/29 02:21:31;;;;;;;;;;;;;;;;;;6190525;28;20030;-68
2023/07/29 02:24:31;;;;;;;1.60;1.10;;;;;;;;;;6186124;28;20599;-66
2023/07/29 02:27:31;;;;;;;1.10;1.00;;;;;;;;;;6188835;28;20022;-67
2023/07/29 02:30:31;;;;;;;;;;;;;;;;;;6201256;28;20272;-67
2023/07/29 02:33:32;;;;;;;1.13;1.02;;;;;;;;;;6202295;28;19972;-67
2023/07/29 02:36:32;;;;;;;;;;;;;;;;;;6206671;28;20415;-67
2023/07/29 02:39:32;;;;;;;1.63;0.93;;;;;;;;;;6197883;28;20403;-67
2023/07/29 02:42:32;;;;;;;;;;;;;;;;;;6207370;28;20106;-67
2023/07/29 02:45:32;;;;;;;1.15;1.02;;;;;;;;;;6207742;28;19937;-67
2023/07/29 02:48:32;;;;;;;;;;;;;;;;;;6208718;28;20050;-66
2023/07/29 02:51:33;;;;;;;1.23;1.10;;;;;;;;;;6206333;28;20004;-66
2023/07/29 02:54:33;;;;;;;;;;;;;;;;;;6200355;28;20026;-67
2023/07/29 02:57:33;;;;;;;0.90;0.88;;;;;;;;;;6200162;28;20000;-67
2023/07/29 03:00:33;;;;;;;;;;;;;;;;;;6195032;28;20050;-66
2023/07/29 03:03:34;;;;;;;0.80;0.80;;;;;;;;;;6185771;28;20379;-67
2023/07/29 03:06:34;;;;;;;1.50;1.10;;;;;;;;;;6182922;28;20022;-67
2023/07/29 03:09:34;;;;;;;1.03;0.93;;;;;;;;;;6208043;28;20018;-68
2023/07/29 03:12:34;;;;;;;;;;;;;;;;;;6181533;28;20770;-68
2023/07/29 03:15:35;;;;;;;1.40;1.07;;;;;;;;;;6181399;28;19955;-67
2023/07/29 03:18:35;;;;;;;;;;;;;;;;;;6180333;28;20108;-68
2023/07/29 03:21:35;;;;;;;0.98;0.88;;;;;;;;;;6183563;28;19924;-68
2023/07/29 03:24:35;;;;;;;;;;;;;;;;;;6186756;28;20022;-68
2023/07/29 03:27:39;;;;;;;1.00;0.90;;;;;;;;;;6184234;28;19932;-67
2023/07/29 03:30:40;;;;;;;1.48;1.23;;;;;;;;;;6181392;28;20026;-67
2023/07/29 03:33:40;;;;;;;;;;;;;;;;;;6196323;28;20026;-68
2023/07/29 03:36:40;;;;;;;1.60;1.20;;;;;;;;;;6186821;28;20106;-67
2023/07/29 03:39:41;;;;;;;2.00;1.13;;;;;;;;;;6184933;28;20196;-67
2023/07/29 03:42:41;;;;;;;;;;;;;;;;;;6183208;28;20032;-67
2023/07/29 03:45:41;;;;;;;1.38;0.98;;;;;;;;;;6182088;28;19928;-68
2023/07/29 03:48:41;;;;;;;1.77;1.20;;;;;;;;;;6183529;28;20026;-68
2023/07/29 03:51:41;;;;;;;;;;;;;;;;;;6186561;28;20056;-68
2023/07/29 03:54:42;;;;;;;0.77;0.77;;;;;;;;;;6191633;28;19918;-67
2023/07/29 03:57:42;;;;;;;;;;;;;;;;;;6181453;28;20026;-68
2023/07/29 04:00:43;;;;;;;0.60;0.60;;;;;;;;;;6185308;28;19929;-68
2023/07/29 04:03:43;;;;;;;;;;;;;;;;;;6180526;28;20069;-68
2023/07/29 04:06:43;;;;;;;0.77;0.77;;;;;;;;;;6185098;28;19913;-68
2023/07/29 04:09:44;;;;;;;;;;;;;;;;;;6224664;22;20050;-69
2023/07/29 04:12:44;;;;;;;0.98;0.85;;;;;;;;;;6199029;28;19918;-65
2023/07/29 04:15:44;;;;;;;;;;;;;;;;;;6205330;28;20033;-65
2023/07/29 04:18:44;;;;;;;0.77;0.65;;;;;;;;;;6212649;28;19932;-65
2023/07/29 04:21:46;;;;;;;;;;;;;;;;;;6209025;28;20033;-65
2023/07/29 04:24:46;;;;;;;0.80;0.70;;;;;;;;;;6203539;28;19916;-66
2023/07/29 04:27:46;;;;;;;;;;;;;;;;;;6217868;28;20391;-65
2023/07/29 04:30:46;;;;;;;1.05;0.90;;;;;;;;;;6218297;28;19914;-66
2023/07/29 04:33:46;;;;;;;;;;;;;;;;;;6215639;28;20546;-66
2023/07/29 04:36:47;;;;;;;0.75;0.65;;;;;;;;;;6218238;28;20317;-67
2023/07/29 04:39:47;;;;;;;;;;;;;;;;;;6219599;28;20022;-65
2023/07/29 04:42:47;;;;;;;1.10;0.98;;;;;;;;;;6217527;28;19913;-65
2023/07/29 04:45:48;;;;;;;;;;;;;;;;;;6214847;28;20026;-65
2023/07/29 04:48:48;;;;;;;0.80;0.80;;;;;;;;;;6217283;28;19910;-66
2023/07/29 04:51:48;;;;;;;1.23;1.00;;;;;;;;;;6230593;28;20022;-66
2023/07/29 04:54:48;;;;;;;0.97;0.87;;;;;;;;;;6234734;28;20501;-65
2023/07/29 04:57:49;;;;;;;1.10;1.00;;;;;;;;;;6227460;28;20376;-67
2023/07/29 05:00:49;;;;;;;1.23;1.10;;;;;;;;;;6224488;28;20108;-67
2023/07/29 05:03:49;;;;;;;1.90;1.03;;;;;;;;;;6216889;28;20386;-64
2023/07/29 05:06:50;;;;;;;1.23;1.13;;;;;;;;;;6213949;28;20601;-66
2023/07/29 05:09:50;;;;;;;1.10;1.00;;;;;;;;;;6213549;28;20644;-66
2023/07/29 05:12:50;;;;;;;1.20;0.97;;;;;;;;;;6216690;28;20022;-66
2023/07/29 05:15:51;;;;;;;1.20;1.07;;;;;;;;;;6215082;28;20281;-65
2023/07/29 05:18:51;;;;;;;1.10;1.00;;;;;;;;;;6214249;28;20087;-65
2023/07/29 05:21:51;;;;;;;1.70;1.00;;;;;;;;;;6214776;28;20022;-65
2023/07/29 05:24:51;;;;;;;1.08;0.98;;;;;;;;;;6217627;28;20553;-66
2023/07/29 05:27:52;;;;;;;1.07;0.97;;;;;;;;;;6218118;28;20086;-66
2023/07/29 05:30:52;;;;;;;1.05;0.90;;;;;;;;;;6213930;28;20269;-66
2023/07/29 05:33:52;;;;;;;1.10;0.93;;;;;;;;;;6222123;28;20479;-66
2023/07/29 05:36:52;;;;;;;1.50;1.20;;;;;;;;;;5875473;28;9999944;-67
2023/07/29 05:39:53;;;;;;;1.13;0.73;;;;;;;;;;6219045;28;20029;-67
2023/07/29 05:42:53;;;;;;;1.20;1.10;;;;;;;;;;6218988;28;20292;-65
2023/07/29 05:45:53;;;;;;;1.80;1.50;;;;;;;;;;6219115;28;20505;-66
2023/07/29 05:48:53;;;;;;;1.67;1.53;;;;;;;;;;6219087;28;20112;-65
2023/07/29 05:51:53;;;;;;;2.15;1.80;;;;;;;;;;6215569;28;20281;-65
2023/07/29 05:54:54;;;;;;;1.97;1.40;;;;;;;;;;6217627;28;20049;-65
2023/07/29 05:57:54;;;;;;;2.03;1.67;;;;;;;;;;6219733;28;20262;-65
2023/07/29 06:00:55;;;;;;;1.40;1.30;;;;;;;;;;6218218;28;20030;-65
2023/07/29 06:03:55;;;;;;;1.23;1.13;;;;;;;;;;6217981;28;21822;-65
2023/07/29 06:06:55;;;;;;;1.37;1.10;;;;;;;;;;6212920;28;20018;-65
2023/07/29 06:09:56;;;;;;;1.10;0.90;;;;;;;;;;6218310;28;20018;-65
2023/07/29 06:12:56;;;;;;;2.05;1.75;;;;;;;;;;6218162;28;20025;-66
2023/07/29 06:15:56;;;;;;;2.97;2.10;;;;;;;;;;6216637;28;20025;-66
2023/07/29 06:18:56;;;;;;;1.60;1.43;;;;;;;;;;6214132;28;20513;-66
2023/07/29 06:21:57;;;;;;;1.35;1.20;;;;;;;;;;6227848;28;20034;-65
2023/07/29 06:24:57;;;;;;;2.50;1.20;;;;;;;;;;6217763;28;20021;-65
2023/07/29 06:27:58;;;;;;;1.65;1.10;;;;;;;;;;6208790;28;20033;-66
2023/07/29 06:30:58;;;;;;;1.20;1.10;;;;;;;;;;6199370;28;20435;-66
2023/07/29 06:33:58;;;;;;;1.07;0.80;;;;;;;;;;6208361;28;20410;-65
2023/07/29 06:36:59;;;;;;;0.98;0.88;;;;;;;;;;6217416;28;20475;-65
2023/07/29 06:39:59;;;;;;;1.10;1.00;;;;;;;;;;6215116;28;20109;-67
2023/07/29 06:42:59;;;;;;;1.20;1.02;;;;;;;;;;6210251;28;20413;-67
2023/07/29 06:45:59;;;;;;;1.03;0.93;;;;;;;;;;6206932;28;20201;-67
2023/07/29 06:49:00;;;;;;;0.90;0.80;;;;;;;;;;6212583;28;20280;-69
2023/07/29 06:52:00;;;;;;;1.47;0.90;;;;;;;;;;6199267;28;20515;-68
2023/07/29 06:55:01;;;;;;;1.88;0.85;;;;;;;;;;6207980;28;20278;-66
2023/07/29 06:58:01;;;;;;;1.30;1.20;;;;;;;;;;6203149;28;20470;-67
2023/07/29 07:01:03;;;;;;;1.52;0.90;;;;;;;;;;6204049;28;20036;-67
2023/07/29 07:04:03;;;;;;;2.58;2.20;;;;;;;;;;6202103;28;20068;-66
2023/07/29 07:07:03;;;;;;;1.53;1.30;;;;;;;;;;6200381;28;20451;-66
2023/07/29 07:10:04;;;;;;;1.02;1.00;;;;;;;;;;6206614;28;20826;-67
2023/07/29 07:13:04;;;;;;;1.52;0.90;;;;;;;;;;5857450;28;10001237;-68
2023/07/29 07:16:05;;;;;;;1.63;1.53;;;;;;;;;;6203832;28;20068;-66
2023/07/29 07:19:05;;;;;;;1.50;1.25;;;;;;;;;;6200111;28;20347;-68
2023/07/29 07:22:05;;;;;;;1.13;1.00;;;;;;;;;;6210170;28;20338;-69
2023/07/29 07:25:05;;;;;;;0.90;0.90;;;;;;;;;;6200793;28;20018;-67
2023/07/29 07:28:06;;;;;;;1.50;1.00;;;;;;;;;;6207228;28;21686;-68
2023/07/29 07:31:06;;;;;;;0.97;0.83;;;;;;;;;;6201516;28;20030;-68
2023/07/29 07:34:06;;;;;;;0.70;0.70;;;;;;;;;;6209940;28;20633;-67
2023/07/29 07:37:07;;;;;;;0.70;0.70;;;;;;;;;;6207996;28;20033;-66
2023/07/29 07:40:07;;;;;;;1.10;0.90;;;;;;;;;;6210995;28;20022;-67
2023/07/29 07:43:07;;;;;;;0.73;0.70;;;;;;;;;;6204261;28;20277;-67
2023/07/29 07:46:07;;;;;;;0.87;0.80;;;;;;;;;;6212247;28;20020;-68
2023/07/29 07:49:08;;;;;;;0.80;0.80;;;;;;;;;;6217571;28;20021;-67
2023/07/29 07:52:08;;;;;;;2.03;0.90;;;;;;;;;;6218429;28;20017;-67
2023/07/29 07:55:08;;;;;;;0.80;0.80;;;;;;;;;;6221699;28;20025;-67
2023/07/29 07:58:08;;;;;;;0.75;0.75;;;;;;;;;;6232089;28;20268;-68
2023/07/29 08:01:09;;;;;;;1.23;1.13;;;;;;;;;;6226424;28;20475;-68
2023/07/29 08:04:09;;;;;;;1.30;1.20;;;;;;;;;;6218687;28;20687;-68
2023/07/29 08:07:09;;;;;;;2.33;1.70;;;;;;;;;;6211097;28;20497;-68
2023/07/29 08:10:09;;;;;;;1.03;1.00;;;;;;;;;;6218091;28;20170;-68
2023/07/29 08:13:10;;;;;;;1.23;1.00;;;;;;;;;;6218477;28;20017;-68
2023/07/29 08:16:10;;;;;;;0.70;0.70;;;;;;;;;;6219018;28;20804;-68
2023/07/29 08:19:10;;;;;;;0.97;0.90;;;;;;;;;;6218295;28;20658;-68
2023/07/29 08:22:10;;;;;;;0.93;0.75;;;;;;;;;;6217146;28;20026;-68
2023/07/29 08:25:11;;;;;;;1.20;0.80;;;;;;;;;;6218373;28;20061;-68
2023/07/29 08:28:11;;;;;;;0.70;0.70;;;;;;;;;;6217468;28;20014;-68
2023/07/29 08:31:11;;;;;;;0.97;0.87;;;;;;;;;;6218012;28;20022;-68
2023/07/29 08:34:11;;;;;;;0.95;0.80;;;;;;;;;;6217294;28;20334;-68
2023/07/29 08:37:13;;;;;;;1.80;0.97;;;;;;;;;;6217386;28;20018;-67
2023/07/29 08:40:13;;;;;;;0.98;0.90;;;;;;;;;;6216352;28;20026;-68
2023/07/29 08:43:15;;;;;;;1.20;1.10;;;;;;;;;;6216928;28;20044;-68
2023/07/29 08:46:16;;;;;;;1.40;1.30;;;;;;;;;;6216662;28;20272;-68
2023/07/29 08:49:19;;;;;;;1.58;1.05;;;;;;;;;;6220177;28;20017;-69
2023/07/29 08:52:19;;;;;;;0.85;0.85;;;;;;;;;;6216139;28;20036;-68
2023/07/29 08:55:20;;;;;;;1.13;0.90;;;;;;;;;;6218500;28;20014;-67
2023/07/29 08:58:22;;;;;;;0.80;0.70;;;;;;;;;;6217098;28;20037;-69
2023/07/29 09:01:22;;;;;;;2.13;1.77;;;;;;;;;;6218127;28;20109;-69
2023/07/29 09:04:23;;;;;;;2.83;1.67;;;;;;;;;;6217648;28;20025;-68
2023/07/29 09:07:24;;;;;;;1.30;1.20;;;;;;;;;;6216584;28;20248;-68
2023/07/29 09:10:25;;;;;;;1.42;0.90;;;;;;;;;;6221062;28;20459;-68
2023/07/29 09:13:26;;;;;;;1.10;1.05;;;;;;;;;;6222547;28;20097;-68
2023/07/29 09:16:26;;;;;;;1.30;1.20;;;;;;;;;;5875856;28;9999861;-69
2023/07/29 09:19:27;;;;;;;2.13;1.93;;;;;;;;;;6238190;28;20052;-69
2023/07/29 09:22:27;;;;;;;1.13;1.02;;;;;;;;;;6221169;28;20458;-69
2023/07/29 09:25:28;;;;;;;1.05;0.95;;;;;;;;;;6222629;28;20459;-69
2023/07/29 09:28:32;;;;;;;1.40;0.90;;;;;;;;;;6223013;28;20618;-68
2023/07/29 09:31:33;;;;;;;0.77;0.77;;;;;;;;;;6221988;28;20070;-70
2023/07/29 09:34:40;;;;;;;0.75;0.70;;;;;;;;;;6221145;28;20127;-68
2023/07/29 09:37:41;;;;;;;0.80;0.80;;;;;;;;;;6221345;28;20025;-67
2023/07/29 09:40:41;;;;;;;1.10;0.90;;;;;;;;;;6221365;28;20552;-69
2023/07/29 09:43:42;;;;;;;1.02;0.80;;;;;;;;;;6221070;28;20022;-68
2023/07/29 09:46:45;;;;;;;1.00;0.90;;;;;;;;;;6221695;28;20021;-68
2023/07/29 09:49:45;;;;;;;0.95;0.70;;;;;;;;;;6221648;28;20315;-69
2023/07/29 09:52:46;;;;;;;1.33;0.87;;;;;;;;;;6220731;28;20702;-68
2023/07/29 09:55:48;;;;;;;0.77;0.77;;;;;;;;;;6221294;28;20276;-66
2023/07/29 09:58:49;;;;;;;0.77;0.70;;;;;;;;;;6221607;28;20033;-69
2023/07/29 10:01:49;;;;;;;0.85;0.85;;;;;;;;;;6221530;28;20494;-69
2023/07/29 10:04:50;;;;;;;0.70;0.70;;;;;;;;;;6221712;28;20396;-68
2023/07/29 10:07:51;;;;;;;1.50;1.00;;;;;;;;;;6219667;28;20141;-68
2023/07/29 10:10:51;;;;;;;1.50;1.40;;;;;;;;;;6233355;23;20054;-70
2023/07/29 10:13:52;;;;;;;1.40;1.30;;;;;;;;;;6202832;28;20083;-68
2023/07/29 10:16:53;;;;;;;1.30;0.80;;;;;;;;;;6215400;28;20030;-71
2023/07/29 10:19:55;;;;;;;0.77;0.77;;;;;;;;;;6213530;28;20014;-71
2023/07/29 10:22:56;;;;;;;0.60;0.60;;;;;;;;;;6214255;28;20029;-70
2023/07/29 10:26:07;;;;;;;0.77;0.77;;;;;;;;;;6220858;28;20036;-70
2023/07/29 10:29:09;;;;;;;0.70;0.70;;;;;;;;;;6224261;28;20344;-70
2023/07/29 10:32:10;;;;;;;0.80;0.80;;;;;;;;;;6219705;28;20476;-69
2023/07/29 10:35:14;;;;;;;0.60;0.60;;;;;;;;;;6220537;28;20032;-70
2023/07/29 10:38:16;;;;;;;0.60;0.60;;;;;;;;;;6220752;28;20029;-70
2023/07/29 10:41:16;;;;;;;1.13;0.90;;;;;;;;;;6216147;28;20148;-71
2023/07/29 10:44:35;;;;;;;0.90;0.90;;;;;;;;;;6219556;28;20029;-70
2023/07/29 10:47:35;;;;;;;0.70;0.70;;;;;;;;;;6219769;28;20052;-69
2023/07/29 10:50:35;;;;;;;1.20;0.90;;;;;;;;;;6219838;28;20363;-70
2023/07/29 10:53:36;;;;;;;0.63;0.63;;;;;;;;;;6219900;28;20033;-70
2023/07/29 10:56:40;;;;;;;0.70;0.63;;;;;;;;;;6220444;28;20356;-70
2023/07/29 10:59:41;;;;;;;0.50;0.50;;;;;;;;;;6216288;28;20022;-70
2023/07/29 11:02:41;;;;;;;2.35;0.70;;;;;;;;;;6221113;28;20542;-69
2023/07/29 11:05:51;;;;;;;0.60;0.60;;;;;;;;;;6219110;28;20018;-71
2023/07/29 11:08:52;;;;;;;1.05;0.95;;;;;;;;;;6219221;28;20025;-70
2023/07/29 11:11:53;;;;;;;1.08;0.80;;;;;;;;;;6220330;28;20340;-70
2023/07/29 11:14:53;;;;;;;1.10;1.00;;;;;;;;;;6218141;28;20105;-70
2023/07/29 11:17:54;;;;;;;0.77;0.77;;;;;;;;;;6219567;28;20585;-70
2023/07/29 11:20:56;;;;;;;0.85;0.85;;;;;;;;;;6222401;28;20022;-71
2023/07/29 11:23:57;;;;;;;0.70;0.70;;;;;;;;;;6218633;28;20022;-70
2023/07/29 11:26:58;;;;;;;1.80;1.30;;;;;;;;;;6219475;28;20386;-70
2023/07/29 11:30:02;;;;;;;1.50;1.40;;;;;;;;;;6218596;28;20021;-71
2023/07/29 11:33:03;;;;;;;1.15;1.05;;;;;;;;;;6213600;28;20034;-70
2023/07/29 11:36:03;;;;;;;1.00;0.90;;;;;;;;;;6217814;28;20076;-71
2023/07/29 11:39:11;;;;;;;0.98;0.90;;;;;;;;;;6216981;28;20490;-70
2023/07/29 11:42:12;;;;;;;0.70;0.70;;;;;;;;;;6216461;28;20111;-70
2023/07/29 11:45:13;;;;;;;0.98;0.90;;;;;;;;;;6218921;28;20117;-69
2023/07/29 11:48:13;;;;;;;2.50;0.90;;;;;;;;;;6234081;28;20465;-71
2023/07/29 11:51:14;;;;;;;0.80;0.80;;;;;;;;;;6217423;28;20027;-70
2023/07/29 11:54:21;;;;;;;1.10;1.00;;;;;;;;;;6218459;28;20110;-70
2023/07/29 11:57:21;;;;;;;1.38;1.27;;;;;;;;;;6217497;28;20509;-71
2023/07/29 12:00:21;;;;;;;1.73;1.63;;;;;;;;;;6219023;28;20030;-71
2023/07/29 12:03:22;;;;;;;0.90;0.80;;;;;;;;;;6218001;28;20280;-70
2023/07/29 12:06:24;;;;;;;1.17;0.90;;;;;;;;;;6218646;28;20273;-71
2023/07/29 12:09:28;;;;;;;0.88;0.88;;;;;;;;;;6223486;28;20542;-71
2023/07/29 12:12:28;;;;;;;1.92;0.82;;;;;;;;;;6228337;28;20064;-70
2023/07/29 12:15:32;;;;;;;1.00;0.90;;;;;;;;;;6235278;28;20436;-71
2023/07/29 12:18:33;;;;;;;1.10;0.85;;;;;;;;;;6230026;28;20098;-71
2023/07/29 12:21:33;;;;;;;0.88;0.88;;;;;;;;;;6217422;28;20030;-70
2023/07/29 12:24:36;;;;;;;1.10;1.00;;;;;;;;;;6218235;28;20147;-70
2023/07/29 12:27:37;;;;;;;1.02;0.93;;;;;;;;;;6217750;28;20279;-72
2023/07/29 12:30:43;;;;;;;1.30;1.20;;;;;;;;;;6216179;28;20018;-72
2023/07/29 12:33:46;;;;;;;1.30;1.00;;;;;;;;;;6215138;28;20626;-70
2023/07/29 12:36:48;;;;;;;1.05;1.00;;;;;;;;;;6216364;28;20164;-70
2023/07/29 12:39:49;;;;;;;1.00;1.00;;;;;;;;;;6217759;28;20021;-70
2023/07/29 12:42:51;;;;;;;1.30;1.20;;;;;;;;;;6216216;28;20026;-70
2023/07/29 12:45:58;;;;;;;1.23;1.13;;;;;;;;;;6218588;28;20033;-70
2023/07/29 12:49:06;;;;;;;1.92;1.80;;;;;;;;;;6215498;28;20024;-70
2023/07/29 12:52:07;;;;;;;1.50;1.40;;;;;;;;;;6215302;28;20037;-71
2023/07/29 12:55:13;;;;;;;1.10;1.10;;;;;;;;;;6217543;28;20030;-72
2023/07/29 12:58:21;;;;;;;1.30;1.20;;;;;;;;;;6216785;28;20026;-70
2023/07/29 13:01:22;;;;;;;1.10;0.95;;;;;;;;;;6215744;28;20036;-69
2023/07/29 13:04:24;;;;;;;1.00;1.00;;;;;;;;;;6216752;28;20044;-69
2023/07/29 13:07:25;;;;;;;1.27;1.17;;;;;;;;;;6216403;28;20018;-70
2023/07/29 13:10:27;;;;;;;0.77;0.77;;;;;;;;;;6216305;28;20115;-71
2023/07/29 13:13:28;;;;;;;0.80;0.80;;;;;;;;;;6217014;28;20268;-71
2023/07/29 13:16:28;;;;;;;0.70;0.60;;;;;;;;;;6215940;28;20026;-71
2023/07/29 13:19:31;;;;;;;0.80;0.80;;;;;;;;;;6225093;28;20096;-70
2023/07/29 13:22:31;;;;;;;0.85;0.85;;;;;;;;;;6229033;28;20038;-71
2023/07/29 13:25:33;;;;;;;0.70;0.70;;;;;;;;;;6217287;28;20466;-69
2023/07/29 13:28:36;;;;;;;1.10;1.00;;;;;;;;;;6216755;28;20482;-71
2023/07/29 13:32:06;;;;;;;0.85;0.85;;;;;;;;;;6266615;23;20067;-71
2023/07/29 13:35:07;;;;;;;1.67;1.58;;;;;;;;;;6248715;28;20017;-71
2023/07/29 13:38:11;;;;;;;2.05;1.90;;;;;;;;;;6241318;28;20022;-72
2023/07/29 13:41:11;;;;;;;1.60;1.50;;;;;;;;;;6243995;28;20117;-71
2023/07/29 13:44:11;;;;;;;1.67;1.27;;;;;;;;;;6247493;28;20014;-72
2023/07/29 13:47:17;;;;;;;1.53;1.00;;;;;;;;;;6241122;28;20029;-71
2023/07/29 13:50:20;;;;;;;1.63;1.27;;;;;;;;;;6240829;28;20013;-71
2023/07/29 13:53:23;;;;;;;1.33;1.23;;;;;;;;;;6240813;28;20428;-72
2023/07/29 13:56:26;;;;;;;1.02;0.93;;;;;;;;;;6244053;28;20375;-71
2023/07/29 13:59:39;;;;;;;;;;;;;;;;;;;;;
2023/07/29 14:02:34;;;;;;;1.48;1.10;;;;;;;;;;6283581;22;20054;-71
2023/07/29 14:05:37;;;;;;;1.30;1.20;;;;;;;;;;6207522;28;21256;-70
2023/07/29 14:08:40;;;;;;;1.27;1.10;;;;;;;;;;6218655;28;20033;-70
2023/07/29 14:11:43;;;;;;;1.15;1.08;;;;;;;;;;6369790;23;20041;-71
2023/07/29 14:14:49;;;;;;;1.27;1.17;;;;;;;;;;6221190;28;20403;-71
2023/07/29 14:17:50;;;;;;;0.85;0.85;;;;;;;;;;6220029;28;20040;-71
2023/07/29 14:20:51;;;;;;;1.10;1.00;;;;;;;;;;6220352;28;20034;-72
2023/07/29 14:23:51;;;;;;;1.00;0.98;;;;;;;;;;6209473;28;20057;-71
2023/07/29 14:26:51;;;;;;;1.97;1.87;;;;;;;;;;6197939;28;20030;-70
2023/07/29 14:29:52;;;;;;;2.67;2.47;;;;;;;;;;6204716;28;20423;-71
2023/07/29 14:32:52;;;;;;;1.80;1.70;;;;;;;;;;6211525;28;20030;-72
2023/07/29 14:35:52;;;;;;;1.43;1.33;;;;;;;;;;6223890;28;20431;-70
2023/07/29 14:38:52;;;;;;;1.20;1.10;;;;;;;;;;6226469;28;20260;-71
2023/07/29 14:41:53;;;;;;;1.50;1.40;;;;;;;;;;6203941;28;20125;-71
2023/07/29 14:44:54;;;;;;;1.50;1.40;;;;;;;;;;6214019;28;20010;-71
2023/07/29 14:47:54;;;;;;;1.60;1.50;;;;;;;;;;6210412;28;20022;-70
2023/07/29 14:50:54;;;;;;;1.97;1.87;;;;;;;;;;6224690;28;20014;-72
2023/07/29 14:53:54;;;;;;;1.60;1.33;;;;;;;;;;6217559;28;20026;-71
2023/07/29 14:56:55;;;;;;;2.30;1.40;;;;;;;;;;6217611;28;20403;-71
2023/07/29 14:59:55;;;;;;;1.50;1.40;;;;;;;;;;6217096;28;20018;-71
2023/07/29 15:02:55;;;;;;;1.43;1.33;;;;;;;;;;6221087;28;20289;-71
2023/07/29 15:05:55;;;;;;;1.20;1.03;;;;;;;;;;6215342;28;20430;-71
2023/07/29 15:08:56;;;;;;;0.95;0.93;;;;;;;;;;6223067;28;20017;-71
2023/07/29 15:11:56;;;;;;;1.30;1.20;;;;;;;;;;6222003;28;20042;-71
2023/07/29 15:14:56;;;;;;;1.40;1.30;;;;;;;;;;6213546;28;20391;-70
2023/07/29 15:17:57;;;;;;;1.30;1.20;;;;;;;;;;6219319;28;20092;-71
2023/07/29 15:20:57;;;;;;;2.10;1.90;;;;;;;;;;6220126;28;20021;-72
2023/07/29 15:23:57;;;;;;;1.77;1.53;;;;;;;;;;6218223;28;20053;-71
2023/07/29 15:26:57;;;;;;;1.70;1.60;;;;;;;;;;6223297;28;20323;-71
2023/07/29 15:29:57;;;;;;;1.53;1.33;;;;;;;;;;6226044;28;20033;-71
2023/07/29 15:32:58;;;;;;;1.47;1.37;;;;;;;;;;6235567;28;20025;-72
2023/07/29 15:35:58;;;;;;;1.40;1.30;;;;;;;;;;6217306;28;20036;-71
2023/07/29 15:38:58;;;;;;;1.37;1.23;;;;;;;;;;6220916;28;20612;-71
2023/07/29 15:41:58;;;;;;;1.67;1.50;;;;;;;;;;6199970;28;20475;-71
2023/07/29 15:44:59;;;;;;;2.85;2.65;;;;;;;;;;6219842;28;20096;-71
2023/07/29 15:47:59;;;;;;;3.83;3.53;;;;;;;;;;6230267;28;20079;-71
2023/07/29 15:51:00;;;;;;;2.70;2.45;;;;;;;;;;6222974;28;20271;-71
2023/07/29 15:54:00;;;;;;;1.65;1.55;;;;;;;;;;6219868;28;20010;-71
2023/07/29 15:57:00;;;;;;;1.40;1.30;;;;;;;;;;6220901;28;20021;-69
2023/07/29 16:00:01;;;;;;;1.70;1.60;;;;;;;;;;6218787;28;20017;-70
2023/07/29 16:03:01;;;;;;;1.57;1.23;;;;;;;;;;6220368;28;20076;-69
2023/07/29 16:06:02;;;;;;;1.40;1.30;;;;;;;;;;6229393;28;20017;-69
2023/07/29 16:09:06;;;;;;;1.38;1.27;;;;;;;;;;6222927;28;20017;-69
2023/07/29 16:12:06;;;;;;;1.20;1.10;;;;;;;;;;6222280;28;20455;-70
2023/07/29 16:15:10;;;;;;;1.40;1.30;;;;;;;;;;6212223;28;20072;-70
2023/07/29 16:18:10;;;;;;;1.63;1.35;;;;;;;;;;6200253;28;20117;-69
2023/07/29 16:21:10;;;;;;;1.40;1.30;;;;;;;;;;6221439;28;20455;-69
2023/07/29 16:24:15;;;;;;;1.13;1.00;;;;;;;;;;6213094;28;20022;-69
2023/07/29 16:27:15;;;;;;;1.30;1.20;;;;;;;;;;6215068;28;20018;-70
2023/07/29 16:30:16;;;;;;;1.27;1.10;;;;;;;;;;6216796;28;20025;-69
2023/07/29 16:33:16;;;;;;;1.70;1.43;;;;;;;;;;6217914;28;20079;-70
2023/07/29 16:36:16;;;;;;;1.17;1.00;;;;;;;;;;6218144;28;20245;-70
2023/07/29 16:39:16;;;;;;;1.20;1.10;;;;;;;;;;6218953;28;20025;-69
2023/07/29 16:42:17;;;;;;;1.03;0.93;;;;;;;;;;6217770;28;20021;-71
2023/07/29 16:45:17;;;;;;;2.07;1.87;;;;;;;;;;6215035;28;20379;-70
2023/07/29 16:48:17;;;;;;;2.90;1.90;;;;;;;;;;6214793;28;20425;-70
2023/07/29 16:51:17;;;;;;;3.30;1.43;;;;;;;;;;6215859;28;20041;-70
2023/07/29 16:54:18;;;;;;;1.57;1.47;;;;;;;;;;6222861;28;20265;-70
2023/07/29 16:57:19;;;;;;;1.67;1.30;;;;;;;;;;6199511;28;20058;-71
2023/07/29 17:00:19;;;;;;;4.07;1.20;;;;;;;;;;6200276;28;20839;-69
2023/07/29 17:03:20;;;;;;;0.97;0.97;;;;;;;;;;6196008;28;20320;-68
2023/07/29 17:06:20;;;;;;;1.13;1.00;;;;;;;;;;6189377;28;20348;-69
2023/07/29 17:09:20;;;;;;;1.87;1.10;;;;;;;;;;6192804;28;20038;-69
2023/07/29 17:12:20;;;;;;;2.00;1.10;;;;;;;;;;6216095;28;20061;-68
2023/07/29 17:15:20;;;;;;;1.30;1.00;;;;;;;;;;6203061;28;20060;-69
2023/07/29 17:18:21;;;;;;;1.07;0.90;;;;;;;;;;6197100;28;20020;-68
2023/07/29 17:21:21;;;;;;;1.05;0.85;;;;;;;;;;6198435;28;20261;-68
2023/07/29 17:24:21;;;;;;;1.23;1.07;;;;;;;;;;6178391;28;20034;-68
2023/07/29 17:27:22;;;;;;;0.97;0.90;;;;;;;;;;6196367;28;20022;-69
2023/07/29 17:30:22;;;;;;;0.80;0.80;;;;;;;;;;5849382;28;10000262;-67
2023/07/29 17:33:22;;;;;;;1.20;1.00;;;;;;;;;;6193989;28;20034;-69
2023/07/29 17:36:22;;;;;;;1.73;1.40;;;;;;;;;;6195935;28;20615;-71
2023/07/29 17:39:23;;;;;;;1.87;1.40;;;;;;;;;;6197900;28;20110;-71
2023/07/29 17:42:23;;;;;;;1.20;1.10;;;;;;;;;;6183900;28;20026;-69
2023/07/29 17:45:23;;;;;;;1.10;1.00;;;;;;;;;;6198264;28;20023;-68
2023/07/29 17:48:23;;;;;;;1.65;1.00;;;;;;;;;;6197161;28;20268;-69
2023/07/29 17:51:24;;;;;;;1.23;1.10;;;;;;;;;;6210256;28;20751;-70
2023/07/29 17:54:24;;;;;;;1.20;1.10;;;;;;;;;;6187293;28;20056;-70
2023/07/29 17:57:26;;;;;;;1.10;1.00;;;;;;;;;;6202200;28;20094;-69
2023/07/29 18:00:26;;;;;;;0.80;0.80;;;;;;;;;;6196541;28;20780;-69
2023/07/29 18:03:26;;;;;;;1.17;1.08;;;;;;;;;;5851750;28;9999680;-69
2023/07/29 18:06:27;;;;;;;1.30;1.20;;;;;;;;;;6203020;28;21306;-69
2023/07/29 18:09:27;;;;;;;0.80;0.77;;;;;;;;;;6200045;28;20397;-69
2023/07/29 18:12:27;;;;;;;1.13;1.02;;;;;;;;;;6195431;28;20022;-69
2023/07/29 18:15:29;;;;;;;1.30;1.20;;;;;;;;;;6197900;28;20041;-70
2023/07/29 18:18:29;;;;;;;1.90;1.70;;;;;;;;;;6199381;28;20030;-70